Time;durP1;ratioP1;P1;durP2;ratioP2;P2;SDS_P1;SDS_P2;PMS_P1;PMS_P2;Temp;Humidity;BMP_temperature;BMP_pressure;BME280_temperature;BME280_humidity;BME280_pressure;Samples;Min_cycle;Max_cycle;Signal;HPM_P1;HPM_P2
2023/10/07 00:01:02;;;;;;;;;;;;;;;11.68;71.12;100736.34;1088454;54;929;-83
2023/10/07 00:02:12;;;;;;;;;;;;;;;11.70;70.77;100726.38;1088336;47;987;-82
2023/10/07 00:03:16;;;;;;;;;;;;;;;11.66;70.97;100740.16;1088446;54;950;-82
2023/10/07 00:04:24;;;;;;;;;;;;;;;11.65;71.26;100733.94;1088458;47;1480;-83
2023/10/07 00:05:32;;;;;;;;;;;;;;;11.65;71.09;100735.78;1088298;47;953;-82
2023/10/07 00:06:41;;;;;;;;;;;;;;;11.61;71.30;100729.84;1088382;54;962;-83
2023/10/07 00:25:43;;;;;;;;;;;;;;;11.34;72.04;100717.03;1088473;54;890;-81
2023/10/07 00:26:47;;;;;;;;;;;;;;;11.33;71.99;100716.22;1088399;54;990;-80
2023/10/07 00:27:53;;;;;;;;;;;;;;;11.27;72.28;100705.19;1088317;54;1011;-81
2023/10/07 00:29:00;;;;;;;;;;;;;;;11.26;72.41;100706.16;1087005;54;1154;-80
2023/10/07 00:30:12;;;;;;;;;;;;;;;11.29;72.37;100703.22;1087000;54;1193;-80
2023/10/07 00:31:13;;;;;;;;;;;;;;;11.36;72.07;100694.50;1086835;54;1150;-79
2023/10/07 00:32:17;;;;;;;;;;;;;;;11.32;72.34;100693.09;1086450;47;1106;-79
2023/10/07 00:33:21;;;;;;;;;;;;;;;11.32;72.66;100687.75;1086621;54;1366;-80
2023/10/07 00:34:31;;;;;;;;;;;;;;;11.37;72.40;100690.03;1086498;47;1086;-80
2023/10/07 00:35:33;;;;;;;;;;;;;;;11.36;72.23;100694.50;1086876;47;1007;-80
2023/10/07 00:36:47;;;;;;;;;;;;;;;11.37;72.19;100700.72;1086608;54;1561;-81
2023/10/07 00:37:48;;;;;;;;;;;;;;;11.32;71.84;100706.47;1086810;54;1042;-80
2023/10/07 00:38:54;;;;;;;;;;;;;;;11.34;71.94;100706.34;1087202;54;1874;-80
2023/10/07 00:39:55;;;;;;;;;;;;;;;11.24;72.58;100700.94;1086917;54;1039;-80
2023/10/07 00:41:03;;;;;;;;;;;;;;;11.15;72.89;100705.25;1086042;47;1551;-79
2023/10/07 00:42:07;;;;;;;;;;;;;;;11.13;72.75;100701.84;1086356;47;1082;-80
2023/10/07 00:43:09;;;;;;;;;;;;;;;11.17;72.68;100705.13;1086504;47;960;-80
2023/10/07 00:44:22;;;;;;;;;;;;;;;11.16;72.54;100703.41;1086606;54;1483;-79
2023/10/07 00:45:24;;;;;;;;;;;;;;;11.08;72.67;100702.25;1086467;54;1081;-80
2023/10/07 00:46:34;;;;;;;;;;;;;;;11.09;73.02;100697.78;1086060;47;1099;-80
2023/10/07 00:47:35;;;;;;;;;;;;;;;11.14;72.84;100700.03;1086460;54;1118;-80
2023/10/07 00:48:47;;;;;;;;;;;;;;;11.08;72.69;100702.25;1088235;54;1043;-80
2023/10/07 00:49:54;;;;;;;;;;;;;;;11.05;72.81;100699.84;1088011;47;1102;-80
2023/10/07 00:51:00;;;;;;;;;;;;;;;11.06;72.80;100714.91;1087721;47;1121;-80
2023/10/07 00:52:05;;;;;;;;;;;;;;;10.98;73.12;100706.69;1086611;54;1083;-80
2023/10/07 00:53:12;;;;;;;;;;;;;;;10.89;73.27;100702.13;1086202;47;1034;-80
2023/10/07 00:54:16;;;;;;;;;;;;;;;10.93;73.27;100706.25;1085812;47;1349;-80
2023/10/07 00:55:22;;;;;;;;;;;;;;;11.01;72.93;100701.09;1085561;54;1408;-80
2023/10/07 00:56:33;;;;;;;;;;;;;;;11.02;72.77;100700.13;1085474;47;1160;-79
2023/10/07 00:57:35;;;;;;;;;;;;;;;11.05;72.68;100701.66;1086309;47;1034;-80
2023/10/07 00:58:41;;;;;;;;;;;;;;;11.02;72.87;100696.56;1086437;54;1859;-80
2023/10/07 00:59:50;;;;;;;;;;;;;;;11.02;72.73;100693.91;1086119;47;1133;-80
2023/10/07 01:00:55;;;;;;;;;;;;;;;11.08;72.78;100694.22;1086196;54;999;-80
2023/10/07 01:01:57;;;;;;;;;;;;;;;11.13;72.38;100687.66;1086357;47;1124;-79
2023/10/07 01:03:13;;;;;;;;;;;;;;;11.12;72.65;100692.13;1086208;46;996;-80
2023/10/07 01:04:16;;;;;;;;;;;;;;;11.19;72.32;100693.28;1086101;54;1413;-79
2023/10/07 01:05:24;;;;;;;;;;;;;;;11.21;72.47;100702.03;1085910;54;1110;-79
2023/10/07 01:06:32;;;;;;;;;;;;;;;11.20;72.17;100702.19;1086461;54;1099;-79
2023/10/07 01:07:34;;;;;;;;;;;;;;;11.15;72.53;100699.03;1086207;54;1107;-79
2023/10/07 01:08:35;;;;;;;;;;;;;;;11.20;72.35;100694.16;1085650;47;1082;-79
2023/10/07 01:09:39;;;;;;;;;;;;;;;11.16;72.44;100684.69;1085697;54;1144;-79
2023/10/07 01:10:53;;;;;;;;;;;;;;;11.10;72.38;100693.25;1085619;54;1150;-79
2023/10/07 01:12:00;;;;;;;;;;;;;;;11.02;72.82;100680.53;1085734;54;1117;-78
2023/10/07 01:13:03;;;;;;;;;;;;;;;11.05;72.82;100680.28;1085758;54;1146;-79
2023/10/07 01:14:06;;;;;;;;;;;;;;;11.02;73.03;100672.50;1085392;46;1357;-80
2023/10/07 01:15:17;;;;;;;;;;;;;;;11.06;72.69;100672.09;1085001;47;1130;-79
2023/10/07 01:16:30;;;;;;;;;;;;;;;11.07;72.82;100683.66;1085380;54;1175;-78
2023/10/07 01:17:33;;;;;;;;;;;;;;;11.03;72.71;100677.75;1085980;54;1079;-79
2023/10/07 01:18:39;;;;;;;;;;;;;;;10.99;73.26;100676.28;1086025;54;1899;-79
2023/10/07 01:19:52;;;;;;;;;;;;;;;11.03;72.92;100676.88;1085763;54;971;-78
2023/10/07 01:21:05;;;;;;;;;;;;;;;11.10;72.97;100666.50;1085651;47;975;-79
2023/10/07 01:22:12;;;;;;;;;;;;;;;11.12;72.82;100669.88;1085374;54;1157;-79
2023/10/07 01:23:24;;;;;;;;;;;;;;;11.03;73.08;100667.03;1085839;54;1156;-79
2023/10/07 01:24:34;;;;;;;;;;;;;;;10.96;73.40;100668.53;1085671;54;1097;-78
2023/10/07 01:25:43;;;;;;;;;;;;;;;10.86;73.85;100662.28;1085137;47;1010;-79
2023/10/07 01:26:44;;;;;;;;;;;;;;;10.82;74.20;100664.34;1085525;54;1161;-79
2023/10/07 01:27:53;;;;;;;;;;;;;;;10.77;74.44;100656.72;1084754;47;1027;-79
2023/10/07 01:29:02;;;;;;;;;;;;;;;10.72;74.60;100664.31;1084297;47;998;-78
2023/10/07 01:30:15;;;;;;;;;;;;;;;10.59;75.30;100667.19;1084588;47;1041;-79
2023/10/07 01:31:18;;;;;;;;;;;;;;;10.66;75.25;100662.16;1084524;47;1603;-78
2023/10/07 01:32:19;;;;;;;;;;;;;;;10.66;75.30;100667.50;1084698;47;1098;-78
2023/10/07 01:33:34;;;;;;;;;;;;;;;10.72;74.84;100669.66;1084736;54;1423;-79
2023/10/07 01:34:35;;;;;;;;;;;;;;;10.73;74.79;100674.03;1084635;47;1088;-79
2023/10/07 01:36:05;;;;;;;;;;;;;;;10.61;75.51;100670.59;1084820;47;1094;-80
2023/10/07 01:37:02;;;;;;;;;;;;;;;10.61;75.20;100677.72;1086345;47;1044;-80
2023/10/07 01:38:09;;;;;;;;;;;;;;;10.61;75.73;100677.72;1085715;47;1118;-79
2023/10/07 01:39:12;;;;;;;;;;;;;;;10.59;75.59;100677.00;1086253;47;1860;-79
2023/10/07 01:40:17;;;;;;;;;;;;;;;10.57;75.68;100679.81;1085987;47;1123;-79
2023/10/07 01:41:19;;;;;;;;;;;;;;;10.55;75.78;100678.25;1086201;54;972;-79
2023/10/07 01:42:35;;;;;;;;;;;;;;;10.55;75.61;100686.28;1085955;47;1059;-80
2023/10/07 01:43:48;;;;;;;;;;;;;;;10.54;76.07;100688.09;1086084;54;1251;-79
2023/10/07 01:44:56;;;;;;;;;;;;;;;10.55;76.08;100688.97;1086475;46;1477;-80
2023/10/07 01:45:57;;;;;;;;;;;;;;;10.59;75.62;100680.53;1086125;54;1087;-80
2023/10/07 01:47:02;;;;;;;;;;;;;;;10.57;76.02;100681.66;1086128;47;1098;-80
2023/10/07 01:48:07;;;;;;;;;;;;;;;10.53;76.03;100683.72;1085698;54;1162;-79
2023/10/07 01:49:11;;;;;;;;;;;;;;;10.57;76.36;100681.66;1085532;47;1074;-79
2023/10/07 01:50:12;;;;;;;;;;;;;;;10.52;76.44;100682.06;1085832;54;1089;-80
2023/10/07 01:51:15;;;;;;;;;;;;;;;10.50;76.56;100680.47;1086345;54;1076;-80
2023/10/07 01:52:16;;;;;;;;;;;;;;;10.50;76.53;100673.31;1086267;54;1174;-80
2023/10/07 01:53:19;;;;;;;;;;;;;;;10.50;76.35;100675.97;1086124;47;1634;-79
2023/10/07 01:54:24;;;;;;;;;;;;;;;10.45;76.52;100671.00;1086025;46;1329;-80
2023/10/07 01:55:27;;;;;;;;;;;;;;;10.50;76.57;100685.81;1086299;47;1093;-80
2023/10/07 01:56:29;;;;;;;;;;;;;;;10.54;76.25;100687.25;1086511;54;1126;-80
2023/10/07 01:57:33;;;;;;;;;;;;;;;10.59;76.29;100693.06;1086316;47;1166;-80
2023/10/07 01:58:35;;;;;;;;;;;;;;;10.63;75.98;100688.31;1086070;54;1139;-79
2023/10/07 01:59:39;;;;;;;;;;;;;;;10.66;75.96;100702.28;1086197;47;1865;-80
2023/10/07 02:00:44;;;;;;;;;;;;;;;10.69;75.92;100691.31;1086044;46;1528;-79
2023/10/07 02:01:50;;;;;;;;;;;;;;;10.69;75.81;100691.31;1086606;54;1149;-79
2023/10/07 02:02:51;;;;;;;;;;;;;;;10.70;76.38;100692.16;1086717;54;1495;-79
2023/10/07 02:03:57;;;;;;;;;;;;;;;10.65;76.67;100689.88;1086587;47;1371;-81
2023/10/07 02:04:59;;;;;;;;;;;;;;;10.69;76.05;100685.94;1086473;47;884;-79
2023/10/07 02:06:05;;;;;;;;;;;;;;;10.75;75.68;100689.94;1086742;54;1038;-78
2023/10/07 02:07:08;;;;;;;;;;;;;;;10.72;75.89;100693.72;1086764;54;1601;-79
2023/10/07 02:08:14;;;;;;;;;;;;;;;10.66;76.60;100691.59;1086629;47;1325;-79
2023/10/07 02:09:23;;;;;;;;;;;;;;;10.71;76.12;100702.72;1087026;46;967;-79
2023/10/07 02:10:29;;;;;;;;;;;;;;;10.72;76.12;100701.75;1086650;54;1074;-79
2023/10/07 02:11:53;;;;;;;;;;;;;;;10.76;76.08;100702.34;1086597;47;1027;-79
2023/10/07 02:12:56;;;;;;;;;;;;;;;10.77;75.68;100694.16;1086737;47;1039;-79
2023/10/07 02:13:58;;;;;;;;;;;;;;;10.78;76.14;100695.03;1086867;54;1386;-79
2023/10/07 02:15:08;;;;;;;;;;;;;;;10.81;75.65;100700.13;1087166;54;1074;-79
2023/10/07 02:16:08;;;;;;;;;;;;;;;10.84;75.44;100699.00;1087291;54;1477;-80
2023/10/07 02:17:14;;;;;;;;;;;;;;;10.83;75.78;100702.66;1087273;54;1084;-80
2023/10/07 02:18:15;;;;;;;;;;;;;;;10.82;75.66;100707.16;1086607;47;947;-80
2023/10/07 02:19:28;;;;;;;;;;;;;;;10.80;75.82;100694.88;1086518;54;1894;-79
2023/10/07 02:20:37;;;;;;;;;;;;;;;10.80;75.82;100697.56;1086498;47;1011;-79
2023/10/07 02:21:41;;;;;;;;;;;;;;;10.84;75.69;100697.19;1086409;47;1101;-80
2023/10/07 02:22:44;;;;;;;;;;;;;;;10.77;76.11;100693.34;1085715;47;1737;-79
2023/10/07 02:23:49;;;;;;;;;;;;;;;10.76;76.06;100692.50;1086099;54;1412;-80
2023/10/07 02:24:59;;;;;;;;;;;;;;;10.73;76.05;100697.22;1086162;47;1589;-80
2023/10/07 02:26:05;;;;;;;;;;;;;;;10.73;75.94;100698.09;1086228;54;1336;-81
2023/10/07 02:27:17;;;;;;;;;;;;;;;10.81;75.52;100694.78;1086111;46;1626;-78
2023/10/07 02:28:22;;;;;;;;;;;;;;;10.85;75.56;100700.72;1086348;54;1099;-79
2023/10/07 02:29:24;;;;;;;;;;;;;;;10.85;75.43;100706.06;1086313;54;1008;-80
2023/10/07 02:30:27;;;;;;;;;;;;;;;10.83;75.65;100708.84;1086561;54;1610;-79
2023/10/07 02:31:41;;;;;;;;;;;;;;;10.82;75.40;100700.97;1086935;47;1039;-79
2023/10/07 02:32:46;;;;;;;;;;;;;;;10.80;76.03;100708.25;1087201;54;1057;-79
2023/10/07 02:33:51;;;;;;;;;;;;;;;10.71;76.23;100704.56;1086928;54;1368;-79
2023/10/07 02:34:55;;;;;;;;;;;;;;;10.76;75.98;100699.66;1087059;46;947;-78
2023/10/07 02:35:58;;;;;;;;;;;;;;;10.76;76.14;100695.19;1086547;47;1122;-79
2023/10/07 02:37:12;;;;;;;;;;;;;;;10.79;76.03;100701.22;1086654;47;1063;-81
2023/10/07 02:38:13;;;;;;;;;;;;;;;10.81;75.69;100696.59;1086848;54;1011;-79
2023/10/07 02:39:24;;;;;;;;;;;;;;;10.80;75.77;100702.91;1087162;54;1920;-78
2023/10/07 02:40:35;;;;;;;;;;;;;;;10.83;75.46;100706.19;1086207;47;1090;-79
2023/10/07 02:41:46;;;;;;;;;;;;;;;10.84;75.53;100699.00;1086240;54;1081;-78
2023/10/07 02:42:46;;;;;;;;;;;;;;;10.85;75.60;100704.22;1085407;47;1444;-78
2023/10/07 02:43:50;;;;;;;;;;;;;;;10.84;75.58;100699.84;1086525;54;1417;-79
2023/10/07 02:45:00;;;;;;;;;;;;;;;10.81;75.03;100697.47;1087115;54;1078;-78
2023/10/07 02:46:02;;;;;;;;;;;;;;;10.80;75.32;100698.44;1084800;54;1114;-79
2023/10/07 02:47:11;;;;;;;;;;;;;;;10.78;75.44;100697.72;1084567;54;1091;-78
2023/10/07 02:48:12;;;;;;;;;;;;;;;10.79;75.30;100696.72;1084532;47;983;-77
2023/10/07 02:49:20;;;;;;;;;;;;;;;10.75;75.77;100704.16;1084359;47;1078;-77
2023/10/07 02:50:21;;;;;;;;;;;;;;;10.76;75.62;100703.19;1084437;47;1023;-77
2023/10/07 02:51:22;;;;;;;;;;;;;;;10.78;75.53;100703.06;1084269;54;1138;-77
2023/10/07 02:52:26;;;;;;;;;;;;;;;10.77;75.21;100702.19;1085750;47;979;-77
2023/10/07 02:53:26;;;;;;;;;;;;;;;10.80;75.39;100708.25;1085953;47;1262;-78
2023/10/07 02:54:32;;;;;;;;;;;;;;;10.80;75.33;100708.25;1085716;54;1557;-79
2023/10/07 02:55:46;;;;;;;;;;;;;;;10.81;75.13;100708.16;1086048;47;1063;-79
2023/10/07 02:57:06;;;;;;;;;;;;;;;10.80;75.05;100716.28;1085762;54;1512;-77
2023/10/07 02:58:08;;;;;;;;;;;;;;;10.65;75.55;100716.63;1085500;54;1067;-78
2023/10/07 02:59:25;;;;;;;;;;;;;;;10.59;75.80;100706.41;1085911;54;1889;-78
2023/10/07 03:00:29;;;;;;;;;;;;;;;10.54;75.91;100703.28;1086102;54;1077;-78
2023/10/07 03:01:37;;;;;;;;;;;;;;;10.43;76.61;100705.03;1085413;54;1422;-78
2023/10/07 03:02:48;;;;;;;;;;;;;;;10.46;76.57;100711.94;1085594;47;1019;-79
2023/10/07 03:03:49;;;;;;;;;;;;;;;10.37;76.69;100712.69;1087795;46;1361;-78
2023/10/07 03:05:12;;;;;;;;;;;;;;;10.34;77.09;100703.09;1087606;47;1348;-79
2023/10/07 03:06:17;;;;;;;;;;;;;;;10.29;77.29;100699.97;1087715;47;931;-79
2023/10/07 03:07:20;;;;;;;;;;;;;;;10.19;77.98;100701.72;1087494;47;1376;-80
2023/10/07 03:08:21;;;;;;;;;;;;;;;10.19;78.01;100693.69;1087099;46;1167;-79
2023/10/07 03:09:25;;;;;;;;;;;;;;;10.26;77.88;100697.53;1087124;54;1090;-79
2023/10/07 03:10:33;;;;;;;;;;;;;;;10.27;77.53;100693.91;1086562;47;1284;-78
2023/10/07 03:11:49;;;;;;;;;;;;;;;10.31;77.12;100698.00;1086889;47;1031;-81
2023/10/07 03:12:56;;;;;;;;;;;;;;;10.39;77.32;100703.59;1087996;46;976;-81
2023/10/07 03:14:02;;;;;;;;;;;;;;;10.39;77.07;100703.59;1087230;54;1448;-79
2023/10/07 03:15:20;;;;;;;;;;;;;;;10.40;77.04;100710.63;1087394;54;1141;-79
2023/10/07 03:16:29;;;;;;;;;;;;;;;10.44;76.99;100712.09;1087612;47;1364;-80
2023/10/07 03:17:39;;;;;;;;;;;;;;;10.39;76.76;100716.13;1086506;54;1043;-80
2023/10/07 03:18:41;;;;;;;;;;;;;;;10.40;77.07;100715.97;1086329;47;976;-80
2023/10/07 03:19:52;;;;;;;;;;;;;;;10.43;76.68;100714.91;1086503;47;1860;-80
2023/10/07 03:21:02;;;;;;;;;;;;;;;10.29;77.64;100710.66;1086841;47;1310;-80
2023/10/07 03:22:15;;;;;;;;;;;;;;;10.24;77.93;100710.19;1087457;47;972;-79
2023/10/07 03:23:18;;;;;;;;;;;;;;;10.15;78.27;100714.47;1086265;47;1125;-79
2023/10/07 03:26:05;;;;;;;;;;;;;;;10.18;78.13;100721.38;1087046;46;1315;-79
2023/10/07 03:27:20;;;;;;;;;;;;;;;10.14;78.06;100718.94;1086624;54;1020;-81
2023/10/07 03:28:35;;;;;;;;;;;;;;;10.12;78.17;100725.41;1087033;47;1003;-80
2023/10/07 03:29:37;;;;;;;;;;;;;;;10.18;78.28;100724.06;1087421;47;1013;-80
2023/10/07 03:30:40;;;;;;;;;;;;;;;10.13;77.95;100727.94;1087010;54;1032;-81
2023/10/07 03:31:47;;;;;;;;;;;;;;;10.11;78.48;100726.38;1087623;47;1365;-79
2023/10/07 03:33:07;;;;;;;;;;;;;;;10.15;78.03;100728.66;1087849;54;1154;-80
2023/10/07 03:35:17;;;;;;;;;;;;;;;10.02;78.64;100737.81;1085197;54;1088;-79
2023/10/07 03:36:41;;;;;;;;;;;;;;;9.92;78.93;100735.03;1085477;46;1208;-80
2023/10/07 03:37:44;;;;;;;;;;;;;;;9.87;79.26;100742.56;1085774;46;1115;-82
2023/10/07 03:38:55;;;;;;;;;;;;;;;9.84;79.41;100739.16;1088395;54;973;-83
2023/10/07 03:40:17;;;;;;;;;;;;;;;9.84;79.50;100744.50;1088244;46;1867;-81
2023/10/07 03:41:25;;;;;;;;;;;;;;;9.84;79.55;100749.84;1088532;46;978;-83
2023/10/07 03:42:28;;;;;;;;;;;;;;;9.85;79.18;100745.38;1088337;47;967;-81
2023/10/07 03:43:37;;;;;;;;;;;;;;;9.82;79.33;100757.13;1087995;54;1382;-79
2023/10/07 03:44:39;;;;;;;;;;;;;;;9.75;79.85;100750.56;1085992;47;1165;-79
2023/10/07 03:45:43;;;;;;;;;;;;;;;9.72;80.04;100749.97;1087685;47;1646;-81
2023/10/07 03:46:44;;;;;;;;;;;;;;;9.68;80.11;100749.38;1088038;54;967;-79
2023/10/07 03:47:50;;;;;;;;;;;;;;;9.67;79.72;100753.88;1087698;54;1055;-79
2023/10/07 03:48:53;;;;;;;;;;;;;;;9.66;80.06;100752.16;1087559;47;984;-79
2023/10/07 03:49:58;;;;;;;;;;;;;;;9.61;80.08;100753.50;1085271;54;1047;-79
2023/10/07 03:51:05;;;;;;;;;;;;;;;9.57;80.36;100757.38;1085303;47;1190;-79
2023/10/07 03:52:12;;;;;;;;;;;;;;;9.62;80.21;100763.22;1085868;54;1140;-80
2023/10/07 03:53:14;;;;;;;;;;;;;;;9.65;79.79;100754.94;1085989;54;1617;-80
2023/10/07 03:54:24;;;;;;;;;;;;;;;9.66;79.85;100749.50;1085331;47;1356;-78
2023/10/07 03:55:27;;;;;;;;;;;;;;;9.75;79.62;100755.91;1084417;47;1081;-79
2023/10/07 03:56:28;;;;;;;;;;;;;;;9.77;79.38;100758.47;1085071;47;1166;-79
2023/10/07 03:57:33;;;;;;;;;;;;;;;9.73;79.14;100755.19;1085578;54;1150;-78
2023/10/07 03:58:37;;;;;;;;;;;;;;;9.78;79.08;100754.81;1085443;54;1023;-78
2023/10/07 03:59:38;;;;;;;;;;;;;;;9.78;79.29;100754.81;1085125;54;1899;-78
2023/10/07 04:00:41;;;;;;;;;;;;;;;9.65;79.27;100754.94;1084681;47;1158;-79
2023/10/07 04:01:42;;;;;;;;;;;;;;;9.72;79.42;100757.97;1085346;54;1117;-79
2023/10/07 04:02:47;;;;;;;;;;;;;;;9.76;79.19;100746.09;1086099;54;1018;-79
2023/10/07 04:03:49;;;;;;;;;;;;;;;9.66;79.40;100746.84;1086716;54;1476;-80
2023/10/07 04:04:59;;;;;;;;;;;;;;;9.74;78.94;100746.19;1085425;47;1003;-78
2023/10/07 04:06:00;;;;;;;;;;;;;;;9.68;79.02;100741.34;1085241;54;1192;-78
2023/10/07 04:07:04;;;;;;;;;;;;;;;9.72;79.31;100745.50;1084210;54;1094;-78
2023/10/07 04:08:05;;;;;;;;;;;;;;;9.67;79.23;100742.31;1084499;47;1171;-79
2023/10/07 04:09:10;;;;;;;;;;;;;;;9.68;79.38;100749.38;1084194;54;1161;-79
2023/10/07 04:10:21;;;;;;;;;;;;;;;9.68;79.31;100744.03;1084478;54;1159;-78
2023/10/07 04:11:28;;;;;;;;;;;;;;;9.67;79.20;100747.66;1085191;54;1481;-78
2023/10/07 04:12:32;;;;;;;;;;;;;;;9.65;79.51;100738.94;1085130;54;1107;-79
2023/10/07 04:13:43;;;;;;;;;;;;;;;9.61;79.67;100737.50;1086271;54;1410;-78
2023/10/07 04:14:44;;;;;;;;;;;;;;;9.61;79.80;100734.81;1087881;46;1091;-79
2023/10/07 04:15:51;;;;;;;;;;;;;;;9.59;79.96;100734.09;1087251;47;1068;-80
2023/10/07 04:16:52;;;;;;;;;;;;;;;9.56;79.85;100743.19;1087312;47;1374;-78
2023/10/07 04:17:59;;;;;;;;;;;;;;;9.54;79.99;100738.94;1087688;47;1099;-80
2023/10/07 04:19:09;;;;;;;;;;;;;;;9.51;79.88;100738.22;1088202;54;1129;-80
2023/10/07 04:20:24;;;;;;;;;;;;;;;9.52;79.90;100742.59;1088359;54;1850;-80
2023/10/07 04:21:24;;;;;;;;;;;;;;;9.48;79.88;100743.78;1088562;54;973;-80
2023/10/07 04:22:28;;;;;;;;;;;;;;;9.45;79.91;100749.34;1088244;47;990;-79
2023/10/07 04:23:31;;;;;;;;;;;;;;;9.45;79.63;100746.69;1088609;54;1366;-79
2023/10/07 04:24:32;;;;;;;;;;;;;;;9.47;79.83;100733.25;1088221;54;1006;-80
2023/10/07 04:25:43;;;;;;;;;;;;;;;9.41;79.70;100745.25;1087181;54;1122;-80
2023/10/07 04:26:51;;;;;;;;;;;;;;;9.43;79.94;100735.31;1086254;54;987;-79
2023/10/07 04:27:56;;;;;;;;;;;;;;;9.40;79.81;100738.19;1087162;54;1124;-79
2023/10/07 04:29:01;;;;;;;;;;;;;;;9.49;79.83;100729.47;1086774;54;1018;-79
2023/10/07 04:30:09;;;;;;;;;;;;;;;9.55;79.24;100732.63;1086617;47;1177;-78
2023/10/07 04:31:10;;;;;;;;;;;;;;;9.60;79.30;100730.44;1086221;47;1182;-80
2023/10/07 04:32:20;;;;;;;;;;;;;;;9.64;78.92;100727.41;1085714;54;1173;-79
2023/10/07 04:33:32;;;;;;;;;;;;;;;9.70;79.00;100722.53;1086498;54;1467;-79
2023/10/07 04:34:40;;;;;;;;;;;;;;;9.73;78.60;100732.97;1086473;54;1079;-79
2023/10/07 04:35:50;;;;;;;;;;;;;;;9.76;78.28;100735.41;1084977;47;1070;-79
2023/10/07 04:37:11;;;;;;;;;;;;;;;9.77;78.06;100721.94;1086155;54;1142;-79
2023/10/07 04:38:30;;;;;;;;;;;;;;;9.80;77.83;100732.38;1086126;47;1121;-79
2023/10/07 04:39:37;;;;;;;;;;;;;;;9.80;78.20;100727.03;1085327;47;952;-78
2023/10/07 04:41:57;;;;;;;;;;;;;;;9.82;77.78;100725.06;1085179;47;1008;-79
2023/10/07 04:43:25;;;;;;;;;;;;;;;9.84;77.74;100711.63;1086191;54;1126;-80
2023/10/07 04:45:00;;;;;;;;;;;;;;;9.82;77.54;100714.38;1084931;47;1031;-79
2023/10/07 04:45:50;;;;;;;;;;;;;;;9.83;77.12;100716.09;1084521;47;1015;-79
2023/10/07 04:46:56;;;;;;;;;;;;;;;9.81;77.36;100718.06;1086669;54;1094;-81
2023/10/07 04:47:57;;;;;;;;;;;;;;;9.85;77.02;100724.00;1088338;47;1003;-81
2023/10/07 04:49:12;;;;;;;;;;;;;;;9.77;77.25;100735.28;1088349;47;944;-82
2023/10/07 04:50:19;;;;;;;;;;;;;;;9.79;77.37;100732.47;1088660;54;971;-81
2023/10/07 04:51:24;;;;;;;;;;;;;;;9.80;77.47;100731.50;1088021;54;968;-78
2023/10/07 04:52:27;;;;;;;;;;;;;;;9.75;77.33;100734.56;1086608;54;1150;-80
2023/10/07 04:53:37;;;;;;;;;;;;;;;9.57;77.98;100733.34;1086280;47;1397;-80
2023/10/07 04:54:43;;;;;;;;;;;;;;;9.54;77.91;100736.28;1086474;47;1102;-80
2023/10/07 04:55:45;;;;;;;;;;;;;;;9.51;78.15;100737.34;1087129;47;1050;-79
2023/10/07 04:56:53;;;;;;;;;;;;;;;9.52;78.23;100745.25;1086876;54;1329;-79
2023/10/07 04:57:57;;;;;;;;;;;;;;;9.48;77.94;100733.09;1086958;54;1137;-81
2023/10/07 04:59:00;;;;;;;;;;;;;;;9.48;78.38;100742.94;1086949;47;1054;-79
2023/10/07 05:00:07;;;;;;;;;;;;;;;9.45;78.01;100738.69;1085394;54;1852;-79
2023/10/07 05:01:22;;;;;;;;;;;;;;;9.43;78.41;100735.31;1084480;47;1188;-80
2023/10/07 05:02:23;;;;;;;;;;;;;;;9.39;78.56;100733.00;1085342;54;1081;-78
2023/10/07 05:03:29;;;;;;;;;;;;;;;9.45;78.30;100732.50;1086408;54;1412;-79
2023/10/07 05:04:32;;;;;;;;;;;;;;;9.37;78.55;100735.75;1086802;54;1158;-79
2023/10/07 05:05:33;;;;;;;;;;;;;;;9.36;78.97;100739.41;1088255;47;1118;-80
2023/10/07 05:06:34;;;;;;;;;;;;;;;9.34;78.75;100741.38;1088275;47;1137;-79
2023/10/07 05:07:38;;;;;;;;;;;;;;;9.29;79.17;100743.53;1088276;47;1010;-78
2023/10/07 05:08:39;;;;;;;;;;;;;;;9.27;79.11;100738.31;1088165;54;943;-79
2023/10/07 05:09:47;;;;;;;;;;;;;;;9.28;79.03;100747.16;1088283;54;1197;-78
2023/10/07 05:10:52;;;;;;;;;;;;;;;9.28;79.01;100748.03;1088283;54;916;-79
2023/10/07 05:11:54;;;;;;;;;;;;;;;9.30;78.84;100747.91;1088425;47;1119;-80
2023/10/07 05:13:06;;;;;;;;;;;;;;;9.31;79.00;100747.75;1088348;54;1110;-79
2023/10/07 05:14:10;;;;;;;;;;;;;;;9.29;79.21;100752.41;1088225;54;1303;-78
2023/10/07 05:15:13;;;;;;;;;;;;;;;9.31;78.83;100742.44;1088053;47;935;-79
2023/10/07 05:17:57;;;;;;;;;;;;;;;9.32;78.72;100748.63;1088305;47;908;-79
2023/10/07 05:20:33;;;;;;;;;;;;;;;9.30;78.61;100754.09;1088376;47;1860;-81
2023/10/07 05:21:37;;;;;;;;;;;;;;;9.34;78.71;100752.03;1088307;54;919;-81
2023/10/07 05:22:40;;;;;;;;;;;;;;;9.30;79.01;100747.91;1088370;47;939;-80
2023/10/07 05:23:41;;;;;;;;;;;;;;;9.25;78.96;100748.25;1088222;47;1360;-81
2023/10/07 05:24:46;;;;;;;;;;;;;;;9.21;79.33;100752.13;1088143;47;1018;-82
2023/10/07 05:25:55;;;;;;;;;;;;;;;9.16;79.38;100747.13;1087982;47;998;-81
2023/10/07 05:26:59;;;;;;;;;;;;;;;9.12;79.88;100745.69;1087865;47;897;-80
2023/10/07 05:28:00;;;;;;;;;;;;;;;9.11;80.12;100757.31;1087821;47;1032;-80
2023/10/07 05:29:04;;;;;;;;;;;;;;;9.11;80.24;100754.66;1087922;47;1007;-81
2023/10/07 05:30:08;;;;;;;;;;;;;;;9.11;80.26;100746.66;1087973;54;1364;-80
2023/10/07 05:31:22;;;;;;;;;;;;;;;9.12;80.13;100748.34;1087917;54;991;-81
2023/10/07 05:33:08;;;;;;;;;;;;;;;9.17;79.73;100742.66;1088089;47;1214;-81
2023/10/07 06:26:29;;;;;;;;;;;;;;;;;;;;;
2023/10/07 06:34:48;;;;;;;;;;;;;;;;;;;;;
2023/10/07 06:48:08;;;;;;;;;;;;;;;10.04;77.36;100771.44;1087997;54;2047;-81
2023/10/07 06:49:18;;;;;;;;;;;;;;;10.12;77.37;100774.31;1088438;47;977;-81
2023/10/07 06:50:27;;;;;;;;;;;;;;;10.15;77.09;100774.09;1088328;47;1054;-81
2023/10/07 06:51:36;;;;;;;;;;;;;;;10.20;77.11;100772.88;1088199;47;1320;-81
2023/10/07 06:53:19;;;;;;;;;;;;;;;10.30;76.66;100773.81;1088284;47;861;-82
2023/10/07 06:54:24;;;;;;;;;;;;;;;10.39;76.76;100780.25;1087886;47;1205;-80
2023/10/07 06:58:22;;;;;;;;;;;;;;;10.57;75.94;100768.06;1088818;46;926;-80
2023/10/07 06:59:27;;;;;;;;;;;;;;;10.70;75.72;100772.38;1088812;54;956;-83
2023/10/07 07:24:31;;;;;;;;;;;;;;;11.73;73.43;100775.25;1088140;54;1205;-83
2023/10/07 07:26:24;;;;;;;;;;;;;;;11.81;73.25;100772.75;1088245;47;993;-83
2023/10/07 07:27:12;;;;;;;;;;;;;;;11.90;72.92;100776.47;1088524;47;1055;-83
2023/10/07 07:28:31;;;;;;;;;;;;;;;11.94;72.73;100768.03;1088878;54;1027;-82
2023/10/07 07:29:38;;;;;;;;;;;;;;;12.01;72.61;100758.47;1088808;54;977;-82
2023/10/07 07:30:39;;;;;;;;;;;;;;;12.02;72.38;100765.53;1088733;54;887;-82
2023/10/07 07:31:50;;;;;;;;;;;;;;;12.06;72.45;100759.91;1088788;54;991;-83
2023/10/07 07:32:56;;;;;;;;;;;;;;;12.08;72.22;100766.81;1088543;46;1013;-82
2023/10/07 07:34:06;;;;;;;;;;;;;;;12.13;72.21;100758.38;1088331;47;1186;-81
2023/10/07 07:35:40;;;;;;;;;;;;;;;12.22;72.10;100759.41;1088449;54;925;-81
2023/10/07 07:36:56;;;;;;;;;;;;;;;12.30;71.81;100767.59;1088391;47;987;-83
2023/10/07 07:38:11;;;;;;;;;;;;;;;12.33;71.42;100772.66;1088075;47;993;-80
2023/10/07 07:39:19;;;;;;;;;;;;;;;12.42;71.23;100776.34;1088456;47;882;-82
2023/10/07 07:40:35;;;;;;;;;;;;;;;12.46;71.35;100767.06;1088446;54;1872;-81
2023/10/07 07:41:55;;;;;;;;;;;;;;;12.57;70.94;100768.75;1088296;47;931;-83
2023/10/07 07:43:25;;;;;;;;;;;;;;;12.63;70.69;100768.16;1088497;47;976;-81
2023/10/07 07:44:45;;;;;;;;;;;;;;;12.64;70.02;100767.19;1088526;46;879;-84
2023/10/07 07:46:26;;;;;;;;;;;;;;;12.68;69.94;100770.44;1088356;46;920;-79
2023/10/07 08:17:51;;;;;;;;;;;;;;;13.94;66.57;100771.16;1087801;54;1161;-80
2023/10/07 08:22:19;;;;;;;;;;;;;;;14.00;66.57;100773.25;1088270;46;957;-80
2023/10/07 08:23:33;;;;;;;;;;;;;;;;;;;;;
2023/10/07 08:24:46;;;;;;;;;;;;;;;13.92;65.88;100765.09;1088241;47;930;-82
2023/10/07 08:26:34;;;;;;;;;;;;;;;13.98;65.91;100764.50;1088318;54;1007;-82
2023/10/07 09:26:05;;;;;;;;;;;;;;;14.85;63.42;100788.28;1087152;54;985;-81
2023/10/07 09:27:11;;;;;;;;;;;;;;;14.90;63.28;100787.81;1087877;54;961;-80
2023/10/07 09:28:31;;;;;;;;;;;;;;;14.96;63.31;100781.81;1088068;47;946;-81
2023/10/07 09:31:15;;;;;;;;;;;;;;;14.91;63.39;100786.84;1088364;47;969;-78
2023/10/07 09:32:18;;;;;;;;;;;;;;;15.01;63.15;100792.13;1087876;47;899;-82
2023/10/07 09:33:25;;;;;;;;;;;;;;;14.98;63.07;100790.59;1087975;54;1027;-80